الصفحة الرئيسية
METAR-TAF:

METAR-TAF

مطار :

Saint-Pierre, ريونيون

دائرة عرض: 21-20S, خط طول: 055-29E, ارتفاع: 52 متر

مراقبة الطقس الحالي

تاريخ ووقت الإصدار 41 دقيقة قبل الساعة 18:00UTC
ريح 4 عقدة من الشرق/الشمال الشرقي
درجة الحرارة 26°درجة مئوية
الرطوبة 84%
ضغط 1010 hPa
الرؤية 10 كم أو أكثر
غيوم مفككة على ارتفاع 1900 قدم
غيوم مفككة على ارتفاع 2500 قدم
غيوم مفككة على ارتفاع 3300 قدم

METAR: FMEP 011800Z AUTO 06004KT 9999 BKN019 BKN025 BKN033 26/23 Q1010

زمن: 22:41 (18:41 UTC)

توقعات

تاريخ ووقت الإصدار 7ساعات و 41 دقيقة قبل الساعة 11:00UTC
التوقعات صالحة من01 الساعة 12 UTC إلى 01 الساعة 21 UTC
ريح 9 عقدة من الجنوب/الجنوب الشرقي
الرؤية 10 كم أو أكثر
غيوم متفرقة على ارتفاع 2500 قدم
نظرية الاحتمالات 30% :
مؤقت
من 01 الساعة 16 UTC إلى 01 الساعة 21 UTC
الرؤية: 4500 متر
غيوم مفككة على ارتفاع 2000 قدم, مزن ركامية عمودية.
زخات من المطر

TAF: FMEP 011100Z 0112/0121 16009KT 9999 SCT025 PROB30 TEMPO 0116/0121 4500 SHRA BKN020TCU

أرصاد الطقس والتوقعات من أكثر من 4000 مطار (تقارير الطقس للمطار METAR والتنبؤ بالطقس بالمطارTAF).

المحطات المتاحة هي النقط الصفراء والحمراء على الخريطة.

حرك المؤشر فوق النقطة لمعرفة اسم المحطة.

ثم انقر لمعرفة أرصاد وتوقعات الطقس.

لتغيير الخارطة: اضغط على الأزرار الخضراء مع رمز الصليب الأسود للتكبير. على الزر الأخضر مع شرطة للتصغير، أو على الأسهم الخضراء للخرائط المجاورة.


METAR-TAF: